Time;durP1;ratioP1;P1;durP2;ratioP2;P2;SDS_P1;SDS_P2;PMS_P1;PMS_P2;Temp;Humidity;BMP_temperature;BMP_pressure;BME280_temperature;BME280_humidity;BME280_pressure;Samples;Min_cycle;Max_cycle;Signal;HPM_P1;HPM_P2
2021/12/20 02:43:28;;;;;;;3.47;1.80;;;;;;;1.26;78.27;98806.64;1839422;77;28054;-41
2021/12/20 02:45:58;;;;;;;4.45;2.10;;;;;;;1.30;78.47;98797.44;1827211;78;21038;-39
2021/12/20 02:48:22;;;;;;;5.95;1.72;;;;;;;1.33;78.05;98804.30;1826901;78;21089;-40
2021/12/20 02:50:48;;;;;;;4.60;2.20;;;;;;;1.26;78.64;98802.75;1828544;78;20998;-40
2021/12/20 02:53:13;;;;;;;4.40;1.60;;;;;;;1.34;78.57;98806.83;1829401;78;20963;-40
2021/12/20 02:55:39;;;;;;;5.80;2.02;;;;;;;1.22;78.67;98794.20;1829399;78;20987;-39
2021/12/20 02:58:05;;;;;;;3.95;1.72;;;;;;;1.22;78.67;98794.20;1829392;78;21025;-40
2021/12/20 03:00:31;;;;;;;6.83;2.35;;;;;;;1.28;78.76;98799.67;1829361;78;20985;-41
2021/12/20 03:02:57;;;;;;;5.80;1.80;;;;;;;1.36;78.51;98804.20;1829433;78;20975;-41
2021/12/20 03:05:22;;;;;;;3.62;1.57;;;;;;;1.23;78.37;98806.25;1829518;78;21428;-40
2021/12/20 03:07:53;;;;;;;3.75;2.10;;;;;;;1.23;79.01;98810.14;1829444;78;20974;-40
2021/12/20 03:10:22;;;;;;;3.17;1.67;;;;;;;1.23;78.89;98813.18;1829428;78;21025;-39
2021/12/20 03:12:49;;;;;;;3.30;1.85;;;;;;;1.27;79.05;98809.61;1829354;78;21514;-39
2021/12/20 03:15:21;;;;;;;3.25;1.47;;;;;;;1.24;79.26;98820.08;1829554;78;20954;-40
2021/12/20 03:17:44;;;;;;;7.20;1.82;;;;;;;1.29;79.13;98831.14;1828772;78;20951;-39
2021/12/20 03:20:14;;;;;;;4.62;1.85;;;;;;;1.31;79.18;98822.89;1829349;78;20986;-41
2021/12/20 03:22:39;;;;;;;4.33;1.40;;;;;;;1.31;79.18;98822.89;1828913;78;20987;-41
2021/12/20 03:25:05;;;;;;;4.60;1.98;;;;;;;1.28;79.36;98826.42;1829398;78;20986;-40
2021/12/20 03:27:31;;;;;;;2.77;1.43;;;;;;;1.32;79.33;98822.02;1829622;78;21022;-40
2021/12/20 03:29:57;;;;;;;3.25;1.55;;;;;;;1.29;79.37;98821.66;1829384;78;21147;-39
2021/12/20 03:32:23;;;;;;;3.08;1.60;;;;;;;1.39;79.09;98817.08;1829364;78;21025;-41
2021/12/20 03:34:49;;;;;;;4.12;1.75;;;;;;;1.35;79.36;98824.53;1829365;78;20955;-39
2021/12/20 03:37:14;;;;;;;3.10;1.70;;;;;;;1.27;79.55;98823.86;1829386;78;20986;-39
2021/12/20 03:39:40;;;;;;;3.72;1.50;;;;;;;1.33;79.49;98822.44;1829356;78;20978;-40
2021/12/20 03:42:06;;;;;;;3.95;1.60;;;;;;;1.30;79.39;98814.73;1821586;78;21004;-40
2021/12/20 03:44:33;;;;;;;4.25;1.80;;;;;;;1.37;79.39;98818.87;1807855;79;21038;-39
2021/12/20 03:47:00;;;;;;;7.55;2.10;;;;;;;1.26;79.68;98824.77;1807875;79;20999;-39
2021/12/20 03:49:26;;;;;;;4.15;1.40;;;;;;;1.22;80.25;98825.71;1806738;79;20971;-39
2021/12/20 03:51:52;;;;;;;3.85;1.80;;;;;;;1.30;80.19;98824.63;1807855;79;20986;-39
2021/12/20 03:54:18;;;;;;;3.60;1.67;;;;;;;1.37;80.13;98824.05;1807464;79;20987;-40
2021/12/20 03:56:43;;;;;;;3.67;1.70;;;;;;;1.30;80.00;98832.86;1807244;79;20983;-44
2021/12/20 03:59:09;;;;;;;2.10;1.45;;;;;;;1.23;80.38;98831.31;1807333;79;21487;-40
2021/12/20 04:01:35;;;;;;;10.18;2.08;;;;;;;1.29;80.69;98837.20;1806342;79;22334;-40
2021/12/20 04:04:02;;;;;;;6.10;1.65;;;;;;;1.35;80.19;98827.13;1806814;79;21015;-40
2021/12/20 04:06:28;;;;;;;4.70;2.00;;;;;;;1.35;80.15;98829.72;1807600;79;20991;-40
2021/12/20 04:08:54;;;;;;;5.83;1.75;;;;;;;1.29;80.15;98824.25;1807299;79;21014;-39
2021/12/20 04:11:20;;;;;;;3.20;1.50;;;;;;;1.23;80.37;98832.61;1807368;79;20987;-41
2021/12/20 04:13:46;;;;;;;2.47;1.40;;;;;;;1.22;80.21;98828.30;1807332;79;21026;-40
2021/12/20 04:16:12;;;;;;;6.03;1.50;;;;;;;1.19;80.48;98819.33;1807544;79;20976;-40
2021/12/20 04:18:38;;;;;;;4.65;1.90;;;;;;;1.18;80.61;98829.27;1807280;79;20982;-40
2021/12/20 04:21:04;;;;;;;3.00;1.35;;;;;;;1.18;80.96;98831.86;1807228;79;20987;-40
2021/12/20 04:23:30;;;;;;;2.33;1.25;;;;;;;1.08;80.78;98834.67;1807226;79;20995;-39
2021/12/20 04:25:57;;;;;;;3.02;1.45;;;;;;;1.19;80.69;98829.70;1807263;78;21029;-39
2021/12/20 04:28:23;;;;;;;5.08;1.45;;;;;;;1.15;80.78;98834.94;1807390;79;21467;-40
2021/12/20 04:30:49;;;;;;;2.65;1.25;;;;;;;1.18;80.82;98827.52;1807344;79;20986;-39
2021/12/20 04:33:15;;;;;;;3.33;1.47;;;;;;;1.12;81.01;98847.95;1807256;79;20990;-40
2021/12/20 04:35:41;;;;;;;2.42;1.30;;;;;;;1.20;80.82;98843.03;1807247;79;20988;-40
2021/12/20 04:38:08;;;;;;;6.22;1.82;;;;;;;1.12;80.97;98841.93;1807269;79;20991;-40
2021/12/20 04:40:35;;;;;;;;;;;;;;;1.19;80.87;98850.41;1809943;79;21038;-39
2021/12/20 04:43:01;;;;;;;3.67;1.30;;;;;;;1.18;80.55;98848.70;1813879;79;20110;-41
2021/12/20 04:45:29;;;;;;;3.00;1.50;;;;;;;1.16;80.66;98839.66;1817539;79;20991;-40
2021/12/20 04:47:56;;;;;;;2.52;1.55;;;;;;;1.12;80.88;98845.81;1817530;79;20990;-40
2021/12/20 04:50:24;;;;;;;2.90;1.17;;;;;;;1.14;80.66;98846.17;1817743;79;20991;-40
2021/12/20 04:52:51;;;;;;;3.10;1.77;;;;;;;1.03;81.47;98835.23;1817631;79;21046;-41
2021/12/20 04:55:18;;;;;;;5.30;1.50;;;;;;;1.11;81.27;98850.16;1817580;79;20990;-39
2021/12/20 04:57:45;;;;;;;3.33;1.57;;;;;;;1.17;81.31;98848.31;1817488;79;21046;-40
2021/12/20 05:00:17;;;;;;;3.10;1.55;;;;;;;1.14;81.26;98840.99;1817677;79;20983;-40
2021/12/20 05:02:44;;;;;;;3.47;1.65;;;;;;;1.13;81.76;98857.44;1817478;79;20983;-39
2021/12/20 05:05:11;;;;;;;2.72;1.55;;;;;;;1.15;81.65;98850.93;1817688;79;21042;-40
2021/12/20 05:07:39;;;;;;;3.60;1.60;;;;;;;1.18;81.64;98851.29;1817411;79;20986;-41
2021/12/20 05:10:13;;;;;;;3.37;1.57;;;;;;;1.14;81.63;98855.23;1817431;79;20978;-40
2021/12/20 05:12:40;;;;;;;4.05;1.75;;;;;;;1.21;81.66;98850.77;1817292;79;21425;-39
2021/12/20 05:15:07;;;;;;;8.28;2.77;;;;;;;1.16;81.73;98851.32;1817480;79;21499;-40
2021/12/20 05:17:35;;;;;;;;;;;;;;;1.18;82.19;98853.88;1820221;79;20999;-40
2021/12/20 05:20:02;;;;;;;13.15;5.03;;;;;;;1.21;81.97;98844.30;1817390;79;20395;-39
2021/12/20 05:22:28;;;;;;;11.50;5.17;;;;;;;1.22;82.12;98839.95;1817690;79;21022;-40
2021/12/20 05:24:53;;;;;;;12.65;5.42;;;;;;;1.30;81.88;98853.59;1817478;79;20978;-40
2021/12/20 05:27:19;;;;;;;22.10;10.40;;;;;;;1.24;81.26;98847.27;1817483;79;20983;-41
2021/12/20 05:29:47;;;;;;;9.13;5.35;;;;;;;1.27;81.35;98844.58;1817431;79;20987;-40
2021/12/20 05:32:12;;;;;;;;;;;;;;;1.23;81.26;98848.15;1820052;79;21480;-39
2021/12/20 05:34:38;;;;;;;12.75;6.33;;;;;;;1.17;81.58;98863.85;1817452;79;20110;-39
2021/12/20 05:37:05;;;;;;;13.40;6.30;;;;;;;1.11;82.01;98861.80;1817542;79;21487;-40
2021/12/20 05:39:31;;;;;;;9.28;5.92;;;;;;;1.17;81.93;98851.73;1817681;79;20999;-39
2021/12/20 05:41:57;;;;;;;35.10;16.00;;;;;;;1.21;81.45;98849.93;1816663;79;20990;-40
2021/12/20 05:44:22;;;;;;;7.03;3.40;;;;;;;1.21;81.75;98853.81;1807295;79;20984;-41
2021/12/20 05:46:48;;;;;;;16.45;7.85;;;;;;;1.20;81.87;98855.98;1807177;79;21023;-41
2021/12/20 05:49:14;;;;;;;15.45;10.08;;;;;;;1.19;81.83;98857.73;1807126;79;20994;-39
2021/12/20 05:51:40;;;;;;;12.80;7.25;;;;;;;1.19;81.78;98865.95;1807318;79;20979;-40
2021/12/20 05:54:06;;;;;;;12.07;6.62;;;;;;;1.27;81.71;98864.02;1807275;79;21437;-39
2021/12/20 05:56:32;;;;;;;11.88;7.00;;;;;;;1.27;81.63;98877.81;1807134;79;21516;-41
2021/12/20 05:58:57;;;;;;;12.07;7.42;;;;;;;1.22;81.62;98868.45;1807257;79;20988;-40
2021/12/20 06:01:23;;;;;;;12.15;7.00;;;;;;;1.17;82.49;98881.98;1807147;79;20983;-39
2021/12/20 06:03:49;;;;;;;8.83;4.58;;;;;;;1.14;82.29;98872.07;1807142;79;20991;-39
2021/12/20 06:06:15;;;;;;;14.03;7.20;;;;;;;1.01;82.87;98870.67;1807186;79;20991;-39
2021/12/20 06:08:41;;;;;;;17.00;8.38;;;;;;;1.07;83.29;98875.69;1807153;79;20982;-39
2021/12/20 06:11:07;;;;;;;42.27;13.00;;;;;;;1.09;83.17;98876.53;1807164;79;21032;-40
2021/12/20 06:13:32;;;;;;;23.15;7.60;;;;;;;1.09;83.70;98880.84;1807181;78;20982;-40
2021/12/20 06:15:58;;;;;;;32.90;10.00;;;;;;;1.10;83.84;98882.10;1807152;79;21071;-40
2021/12/20 06:18:24;;;;;;;11.93;5.30;;;;;;;1.13;83.94;98882.04;1807123;79;20995;-40
2021/12/20 06:20:50;;;;;;;7.25;3.22;;;;;;;1.17;84.13;98884.56;1807128;78;20995;-41
2021/12/20 06:23:15;;;;;;;6.45;3.50;;;;;;;1.07;84.72;98889.09;1807128;79;20984;-40
2021/12/20 06:25:41;;;;;;;7.35;3.12;;;;;;;1.01;85.46;98884.91;1807166;79;20991;-40
2021/12/20 06:28:07;;;;;;;7.00;2.98;;;;;;;1.02;85.27;98878.86;1807196;79;21067;-40
2021/12/20 06:30:33;;;;;;;7.75;4.00;;;;;;;0.97;85.41;98894.94;1807186;79;20995;-40
2021/12/20 06:32:59;;;;;;;9.25;5.60;;;;;;;1.00;85.11;98902.64;1807090;79;20995;-39
2021/12/20 06:35:25;;;;;;;7.85;4.53;;;;;;;0.99;85.59;98906.11;1807170;79;21026;-39
2021/12/20 06:38:00;;;;;;;8.25;3.80;;;;;;;1.00;85.56;98908.24;1807178;79;21452;-40
2021/12/20 06:40:19;;;;;;;;;;;;;;;1.02;85.15;98910.35;1808397;79;20964;-41
2021/12/20 06:42:44;;;;;;;5.12;2.58;;;;;;;1.01;86.02;98909.51;1809971;79;20133;-39
2021/12/20 06:45:10;;;;;;;7.75;2.62;;;;;;;1.11;85.44;98907.12;1817410;79;21022;-39
2021/12/20 06:47:36;;;;;;;5.85;3.83;;;;;;;1.09;85.25;98917.09;1817458;79;21030;-39
2021/12/20 06:50:04;;;;;;;8.28;3.83;;;;;;;1.08;85.12;98916.70;1817432;79;20991;-40
2021/12/20 06:52:30;;;;;;;9.88;3.00;;;;;;;1.17;84.54;98919.08;1817420;79;20995;-40
2021/12/20 06:54:56;;;;;;;2.60;2.40;;;;;;;1.11;84.61;98916.19;1817428;79;20995;-39
2021/12/20 06:57:21;;;;;;;4.30;2.40;;;;;;;1.22;84.55;98915.95;1817418;79;20987;-40
2021/12/20 06:59:48;;;;;;;5.47;3.40;;;;;;;1.25;84.50;98927.96;1817439;79;21033;-41
2021/12/20 07:02:14;;;;;;;7.92;3.30;;;;;;;1.23;84.06;98914.20;1817692;79;20978;-40
2021/12/20 07:04:40;;;;;;;4.42;3.12;;;;;;;1.30;84.01;98931.30;1817418;79;20986;-40
2021/12/20 07:07:06;;;;;;;5.17;2.83;;;;;;;1.22;84.16;98928.02;1817474;79;21837;-40
2021/12/20 07:09:32;;;;;;;7.55;3.87;;;;;;;1.25;84.32;98926.21;1817425;79;20983;-39
2021/12/20 07:11:57;;;;;;;5.45;2.67;;;;;;;1.24;84.46;98937.48;1817400;79;21010;-40
2021/12/20 07:14:26;;;;;;;5.90;3.08;;;;;;;1.20;84.80;98947.93;1817368;79;20951;-40
2021/12/20 07:16:51;;;;;;;9.28;4.08;;;;;;;1.25;85.07;98948.69;1817152;79;20975;-40
2021/12/20 07:19:17;;;;;;;5.62;3.20;;;;;;;1.28;84.92;98946.88;1817473;79;21513;-40
2021/12/20 07:21:43;;;;;;;6.67;4.08;;;;;;;1.22;85.10;98950.91;1817447;79;21022;-39
2021/12/20 07:24:08;;;;;;;7.17;3.75;;;;;;;1.22;84.89;98938.38;1817552;79;20960;-39
2021/12/20 07:26:35;;;;;;;8.30;4.42;;;;;;;1.22;84.89;98938.38;1817477;79;21630;-40
2021/12/20 07:29:01;;;;;;;7.22;3.67;;;;;;;1.26;84.90;98941.33;1817574;79;21034;-40
2021/12/20 07:31:27;;;;;;;9.48;4.37;;;;;;;1.18;85.38;98953.14;1817533;79;21035;-40
2021/12/20 07:33:53;;;;;;;6.72;3.02;;;;;;;1.26;85.35;98958.17;1817551;79;21499;-41
2021/12/20 07:36:21;;;;;;;7.58;3.47;;;;;;;1.26;85.52;98956.87;1817540;79;21456;-40
2021/12/20 07:38:47;;;;;;;9.48;3.55;;;;;;;1.13;85.96;98955.85;1817430;79;20983;-40
2021/12/20 07:41:19;;;;;;;6.30;3.15;;;;;;;1.09;86.35;98959.41;1817554;79;21510;-40
2021/12/20 07:43:45;;;;;;;7.30;3.65;;;;;;;1.21;86.29;98958.72;1817399;79;21011;-39
2021/12/20 07:46:11;;;;;;;3.60;2.90;;;;;;;1.20;86.04;98968.66;1817555;79;20991;-40
2021/12/20 07:48:37;;;;;;;5.85;2.95;;;;;;;1.06;86.25;98967.23;1817570;79;20987;-40
2021/12/20 07:51:04;;;;;;;5.42;2.90;;;;;;;1.23;86.02;98968.59;1817523;79;20990;-40
2021/12/20 07:53:30;;;;;;;5.17;2.50;;;;;;;1.23;86.05;98969.44;1817710;79;21491;-41
2021/12/20 07:55:56;;;;;;;3.37;2.35;;;;;;;1.28;85.68;98955.09;1817529;79;21463;-40
2021/12/20 07:58:22;;;;;;;5.75;2.90;;;;;;;1.29;85.41;98977.51;1817513;79;21007;-41
2021/12/20 08:00:48;;;;;;;5.60;2.62;;;;;;;1.24;85.35;98983.27;1817554;79;21026;-42
2021/12/20 08:03:14;;;;;;;4.78;2.30;;;;;;;1.12;85.14;98977.44;1817536;79;21026;-40
2021/12/20 08:05:41;;;;;;;4.03;2.75;;;;;;;1.20;85.36;98990.67;1817575;79;20987;-41
2021/12/20 08:08:07;;;;;;;9.63;3.50;;;;;;;1.23;84.95;98981.55;1817683;79;20948;-41
2021/12/20 08:10:33;;;;;;;4.55;3.37;;;;;;;1.21;85.00;98987.20;1817534;79;21491;-41
2021/12/20 08:12:59;;;;;;;7.22;3.45;;;;;;;1.29;84.84;98985.28;1817489;79;21030;-40
2021/12/20 08:15:26;;;;;;;5.08;3.05;;;;;;;1.22;84.97;98990.19;1817626;79;21075;-40
2021/12/20 08:17:55;;;;;;;4.78;2.70;;;;;;;1.29;84.70;98982.69;1817680;79;20994;-41
2021/12/20 08:20:21;;;;;;;6.12;3.10;;;;;;;1.24;84.43;98989.73;1817588;79;21026;-40
2021/12/20 08:22:47;;;;;;;5.42;3.17;;;;;;;1.32;84.33;98998.17;1817482;79;20986;-40
2021/12/20 08:25:15;;;;;;;5.85;2.72;;;;;;;1.39;84.14;98995.86;1817527;79;21017;-42
2021/12/20 08:27:41;;;;;;;6.47;2.62;;;;;;;1.45;83.94;99003.92;1817576;79;21433;-40
2021/12/20 08:30:09;;;;;;;4.83;2.83;;;;;;;1.44;83.67;98999.65;1817544;79;20979;-40
2021/12/20 08:32:36;;;;;;;5.80;2.77;;;;;;;1.37;83.48;99001.52;1817635;79;20971;-40
2021/12/20 08:35:04;;;;;;;3.02;2.20;;;;;;;1.40;83.56;99009.23;1817695;79;21150;-41
2021/12/20 08:37:30;;;;;;;6.67;2.58;;;;;;;1.47;83.24;99001.70;1817503;79;21026;-40
2021/12/20 08:39:55;;;;;;;4.35;2.65;;;;;;;1.48;82.82;98996.09;1817435;79;20991;-40
2021/12/20 08:42:21;;;;;;;4.65;2.72;;;;;;;1.49;82.83;99002.54;1817461;79;20994;-40
2021/12/20 08:44:48;;;;;;;3.80;2.70;;;;;;;1.62;82.91;98999.64;1812990;78;20991;-42
2021/12/20 08:47:15;;;;;;;7.25;2.77;;;;;;;1.48;82.38;99011.19;1812744;79;20998;-40
2021/12/20 08:49:42;;;;;;;5.55;2.70;;;;;;;1.61;82.46;99014.80;1813008;79;20987;-41
2021/12/20 08:52:09;;;;;;;5.58;2.72;;;;;;;1.53;82.45;99013.23;1812603;79;20992;-41
2021/12/20 08:54:35;;;;;;;6.50;2.50;;;;;;;1.59;82.26;99013.53;1812730;79;20987;-41
2021/12/20 08:57:01;;;;;;;3.85;2.27;;;;;;;1.33;82.34;99021.91;1812733;78;21555;-39
2021/12/20 08:59:27;;;;;;;7.95;3.45;;;;;;;1.39;82.54;99020.47;1812719;79;21026;-39
2021/12/20 09:01:53;;;;;;;10.55;3.60;;;;;;;1.44;82.28;99030.30;1812601;78;20956;-41
2021/12/20 09:04:18;;;;;;;11.20;4.87;;;;;;;1.36;82.14;99019.23;1812701;79;21543;-40
2021/12/20 09:06:45;;;;;;;5.62;3.45;;;;;;;1.39;82.46;99023.06;1812619;79;21128;-41
2021/12/20 09:09:14;;;;;;;6.10;3.10;;;;;;;1.31;82.17;99027.55;1812883;79;21466;-40
2021/12/20 09:11:42;;;;;;;4.92;2.80;;;;;;;1.28;82.51;99031.06;1812705;79;21007;-41
2021/12/20 09:14:08;;;;;;;4.20;2.45;;;;;;;1.34;82.00;99032.67;1812740;79;20991;-41
2021/12/20 09:16:34;;;;;;;3.20;2.33;;;;;;;1.40;81.60;99022.19;1812612;79;21003;-39
2021/12/20 09:18:59;;;;;;;3.08;2.15;;;;;;;1.41;80.84;99023.88;1812596;79;20994;-39
2021/12/20 09:21:25;;;;;;;4.33;2.12;;;;;;;1.32;80.89;99028.81;1812638;79;20978;-41
2021/12/20 09:23:51;;;;;;;3.17;2.05;;;;;;;1.42;80.91;99028.19;1812608;79;21488;-41
2021/12/20 09:26:18;;;;;;;4.55;2.65;;;;;;;1.39;81.00;99029.53;1812673;79;21520;-41
2021/12/20 09:28:44;;;;;;;5.50;3.00;;;;;;;1.47;80.84;99035.38;1812786;79;21054;-40
2021/12/20 09:31:10;;;;;;;6.83;3.30;;;;;;;1.38;80.73;99039.48;1812628;79;20987;-40
2021/12/20 09:33:36;;;;;;;8.03;4.50;;;;;;;1.44;80.90;99043.25;1812740;79;20995;-40
2021/12/20 09:36:04;;;;;;;5.95;3.10;;;;;;;1.41;80.87;99055.42;1812592;79;20975;-40
2021/12/20 09:38:31;;;;;;;6.25;2.50;;;;;;;1.36;80.40;99041.25;1812768;79;21046;-40
2021/12/20 09:41:13;;;;;;;5.22;2.20;;;;;;;1.36;80.42;99043.00;1812710;79;21034;-39
2021/12/20 09:43:29;;;;;;;4.20;2.58;;;;;;;1.45;80.40;99044.94;1808654;79;20976;-42
2021/12/20 09:45:57;;;;;;;3.87;2.42;;;;;;;1.41;80.28;99052.38;1806940;79;21069;-41
2021/12/20 09:48:23;;;;;;;;;;;;;;;1.29;80.16;99047.03;1809112;79;21034;-41
2021/12/20 09:50:49;;;;;;;6.20;2.98;;;;;;;1.39;80.22;99041.65;1805898;79;20285;-40
2021/12/20 09:53:15;;;;;;;6.53;3.12;;;;;;;1.41;80.28;99048.94;1805967;79;21011;-41
2021/12/20 09:55:47;;;;;;;7.25;2.72;;;;;;;1.47;80.43;99041.86;1806078;79;21110;-40
2021/12/20 09:58:14;;;;;;;6.42;2.85;;;;;;;1.49;80.11;99052.20;1806687;79;21015;-40
2021/12/20 10:00:41;;;;;;;5.00;3.03;;;;;;;1.56;79.55;99045.99;1807500;79;21018;-40
2021/12/20 10:03:08;;;;;;;3.07;2.30;;;;;;;1.61;79.39;99054.52;1807406;79;21006;-39
2021/12/20 10:05:35;;;;;;;5.25;2.40;;;;;;;1.51;78.92;99065.55;1807318;79;21050;-41
2021/12/20 10:08:13;;;;;;;5.15;2.80;;;;;;;1.52;78.70;99062.05;1807251;79;20986;-41
2021/12/20 10:10:43;;;;;;;6.90;2.72;;;;;;;1.45;79.07;99044.94;1805255;79;21004;-41
2021/12/20 10:13:20;;;;;;;;;;;;;;;1.48;78.93;99052.65;1809819;79;21495;-39
2021/12/20 10:15:46;;;;;;;9.15;3.37;;;;;;;1.49;78.64;99064.73;1786544;79;20139;-40
2021/12/20 10:18:13;;;;;;;6.12;3.25;;;;;;;1.52;79.08;99051.69;1784835;80;21673;-41
2021/12/20 10:20:40;;;;;;;8.45;3.75;;;;;;;1.52;78.74;99050.39;1784169;80;21016;-40
2021/12/20 10:23:20;;;;;;;7.10;3.65;;;;;;;1.60;78.74;99046.77;1784700;79;20995;-42
2021/12/20 10:25:53;;;;;;;5.37;2.55;;;;;;;1.58;78.77;99053.28;1784763;80;20990;-40
2021/12/20 10:28:26;;;;;;;6.20;3.92;;;;;;;1.68;78.36;99048.31;1784713;80;20986;-40
2021/12/20 10:30:58;;;;;;;4.83;2.60;;;;;;;1.65;78.36;99044.94;1793876;78;20991;-42
2021/12/20 10:33:27;;;;;;;4.12;2.55;;;;;;;1.52;78.06;99058.17;1809915;78;20937;-41
2021/12/20 10:35:57;;;;;;;4.70;2.87;;;;;;;1.47;77.98;99060.45;1809847;78;21022;-40
2021/12/20 10:38:37;;;;;;;9.45;3.10;;;;;;;1.54;78.21;99064.16;1801417;78;21519;-42
2021/12/20 10:41:19;;;;;;;5.85;3.20;;;;;;;1.53;78.09;99048.67;1809763;78;20959;-40
2021/12/20 10:43:57;;;;;;;8.33;3.42;;;;;;;1.54;78.02;99082.76;1809548;78;21526;-41
2021/12/20 10:46:26;;;;;;;10.80;3.47;;;;;;;1.40;77.91;99061.47;1811715;78;21364;-41
2021/12/20 10:49:08;;;;;;;6.03;2.65;;;;;;;1.33;77.60;99049.96;1811011;78;20929;-41
2021/12/20 10:51:38;;;;;;;9.58;4.00;;;;;;;1.31;77.87;99057.33;1820585;78;21004;-40
2021/12/20 10:54:10;;;;;;;7.22;3.67;;;;;;;1.23;78.11;99055.37;1816136;78;21012;-41
2021/12/20 10:56:38;;;;;;;7.67;3.62;;;;;;;1.29;78.06;99050.05;1816167;78;21396;-40
2021/12/20 10:59:11;;;;;;;9.08;3.12;;;;;;;1.32;78.35;99045.65;1821821;78;20963;-41
2021/12/20 11:04:30;;;;;;;5.62;2.47;;;;;;;1.46;78.91;99045.36;1811047;78;20962;-43
2021/12/20 11:09:04;;;;;;;7.62;2.77;;;;;;;1.49;78.59;99050.91;1814144;78;21453;-41
2021/12/20 11:09:35;;;;;;;10.55;4.00;;;;;;;1.39;78.64;99050.72;1813356;78;20926;-39
2021/12/20 11:12:18;;;;;;;6.83;3.72;;;;;;;1.41;78.53;99044.60;1820325;78;21032;-41
2021/12/20 11:14:48;;;;;;;6.85;3.50;;;;;;;1.49;78.37;99054.38;1819214;79;22092;-42
2021/12/20 11:17:17;;;;;;;5.67;2.92;;;;;;;1.52;78.11;99054.28;1820097;78;21024;-38
2021/12/20 11:19:51;;;;;;;4.17;2.60;;;;;;;1.44;78.07;99060.09;1820289;78;21439;-42
2021/12/20 11:22:24;;;;;;;5.87;2.40;;;;;;;1.46;78.01;99062.66;1818288;79;20988;-41
2021/12/20 11:24:54;;;;;;;5.58;2.40;;;;;;;1.56;77.52;99067.18;1820251;78;21528;-41
2021/12/20 11:27:32;;;;;;;5.42;2.80;;;;;;;1.52;76.37;99065.94;1820260;79;21031;-42
2021/12/20 11:30:01;;;;;;;5.30;2.52;;;;;;;1.44;76.20;99069.16;1815530;79;21204;-41
2021/12/20 11:32:28;;;;;;;4.30;2.22;;;;;;;1.49;76.12;99072.93;1816687;79;20976;-40
2021/12/20 11:34:55;;;;;;;7.20;3.15;;;;;;;1.44;75.97;99071.75;1820245;79;21419;-40
2021/12/20 11:37:26;;;;;;;5.08;2.90;;;;;;;1.50;75.84;99071.61;1820308;79;21020;-41
2021/12/20 11:39:54;;;;;;;4.12;2.20;;;;;;;1.49;76.09;99069.92;1821029;79;21165;-41
2021/12/20 11:42:21;;;;;;;5.55;2.70;;;;;;;1.50;75.73;99074.20;1821093;79;20988;-41
2021/12/20 11:44:50;;;;;;;7.75;4.10;;;;;;;1.62;75.61;99074.80;1813459;78;21051;-41
2021/12/20 11:47:54;;;;;;;8.75;3.08;;;;;;;1.61;75.37;99077.85;1800660;78;20997;-41
2021/12/20 11:50:24;;;;;;;10.90;3.90;;;;;;;1.61;75.43;99075.26;1795790;79;21080;-42
2021/12/20 11:52:53;;;;;;;10.50;4.58;;;;;;;1.58;75.35;99069.29;1795530;80;21086;-40
2021/12/20 11:55:27;;;;;;;7.00;3.22;;;;;;;1.46;74.83;99089.41;1795829;78;21001;-40
2021/12/20 11:58:03;;;;;;;9.70;4.42;;;;;;;1.53;75.23;99071.55;1794523;80;21036;-41
2021/12/20 12:00:38;;;;;;;10.53;4.80;;;;;;;1.49;75.32;99077.69;1795574;80;20993;-41
2021/12/20 12:03:21;;;;;;;8.38;3.72;;;;;;;1.44;74.69;99089.05;1794389;78;20963;-40
2021/12/20 12:05:58;;;;;;;8.45;3.90;;;;;;;1.45;75.13;99084.26;1776856;79;21530;-41
2021/12/20 12:08:40;;;;;;;14.53;7.53;;;;;;;1.47;75.29;99085.07;1775005;81;21853;-39
2021/12/20 12:11:14;;;;;;;12.50;5.62;;;;;;;1.43;75.11;99092.06;1774787;81;20991;-41
2021/12/20 12:14:01;;;;;;;8.68;4.10;;;;;;;1.50;75.23;99094.93;1812532;78;21064;-42
2021/12/20 12:16:50;;;;;;;16.32;7.17;;;;;;;1.45;75.46;99093.33;1822206;77;21057;-41
2021/12/20 12:19:42;;;;;;;14.15;7.25;;;;;;;1.41;75.45;99092.54;1822539;79;20990;-40
2021/12/20 12:22:41;;;;;;;14.25;6.15;;;;;;;1.46;75.34;99100.23;1822523;79;21017;-41
2021/12/20 12:25:15;;;;;;;14.35;5.22;;;;;;;1.39;74.74;99099.50;1822470;79;20998;-42
2021/12/20 12:27:43;;;;;;;7.30;2.70;;;;;;;1.36;73.73;99109.91;1820061;78;20987;-42
2021/12/20 12:30:27;;;;;;;24.63;8.23;;;;;;;1.44;74.02;99111.07;1822475;78;20984;-43
2021/12/20 12:33:04;;;;;;;3.55;2.02;;;;;;;1.33;73.81;99117.32;1820332;78;20948;-40
2021/12/20 12:35:50;;;;;;;49.10;13.32;;;;;;;1.36;73.30;99116.84;1828094;78;21007;-42
2021/12/20 12:38:27;;;;;;;7.80;2.87;;;;;;;1.39;72.91;99109.86;1828251;77;20988;-44
2021/12/20 12:41:15;;;;;;;6.25;2.95;;;;;;;1.35;73.07;99110.81;1819032;78;21487;-41
2021/12/20 12:44:03;;;;;;;10.53;3.87;;;;;;;1.36;73.74;99120.27;1794593;79;21556;-42
2021/12/20 12:46:49;;;;;;;20.90;6.17;;;;;;;1.46;73.93;99124.39;1805704;78;20927;-40
2021/12/20 12:49:29;;;;;;;20.60;6.00;;;;;;;1.35;73.73;99131.55;1784217;79;20987;-40
2021/12/20 12:52:01;;;;;;;12.37;4.95;;;;;;;1.48;74.22;99122.62;1809986;79;21027;-41
2021/12/20 12:54:53;;;;;;;6.85;2.95;;;;;;;1.39;73.53;99133.18;1811694;79;21151;-40
2021/12/20 12:57:25;;;;;;;9.73;3.95;;;;;;;1.38;73.26;99130.16;1783291;79;21053;-43
2021/12/20 12:59:57;;;;;;;15.30;5.92;;;;;;;1.38;72.99;99145.70;1789892;79;20995;-41
2021/12/20 13:02:40;;;;;;;15.03;5.08;;;;;;;1.35;73.01;99134.13;1792214;79;22096;-43
2021/12/20 13:05:16;;;;;;;8.25;3.10;;;;;;;1.38;73.05;99144.86;1779326;80;21007;-41
2021/12/20 13:07:53;;;;;;;10.80;4.25;;;;;;;1.32;73.06;99132.44;1779422;80;21030;-42
2021/12/20 13:10:36;;;;;;;26.65;6.60;;;;;;;1.34;72.92;99138.44;1821292;78;21523;-38
2021/12/20 13:13:15;;;;;;;27.10;7.00;;;;;;;1.40;73.16;99144.39;1821402;78;21499;-40
2021/12/20 13:18:14;;;;;;;19.32;5.65;;;;;;;1.44;72.59;99147.35;1811600;79;21050;-41
2021/12/20 13:23:28;;;;;;;10.88;5.62;;;;;;;1.40;72.85;99172.47;1811470;79;21019;-40
2021/12/20 13:26:01;;;;;;;16.27;6.33;;;;;;;1.38;72.81;99158.66;1811913;78;21058;-41
2021/12/20 13:28:34;;;;;;;20.30;7.33;;;;;;;1.34;72.63;99160.91;1812017;79;20979;-42
2021/12/20 13:31:16;;;;;;;9.28;4.30;;;;;;;1.28;72.73;99158.45;1790125;79;21513;-42
2021/12/20 13:33:51;;;;;;;8.33;3.58;;;;;;;1.19;73.52;99169.84;1789164;79;20992;-42
2021/12/20 13:36:24;;;;;;;9.75;3.95;;;;;;;1.18;74.58;99168.58;1789013;80;21576;-40
2021/12/20 13:38:56;;;;;;;8.20;3.70;;;;;;;1.15;74.68;99166.91;1809754;79;21000;-49
2021/12/20 13:41:28;;;;;;;17.07;4.55;;;;;;;1.06;74.24;99177.44;1811902;79;21014;-42
2021/12/20 13:44:06;;;;;;;16.07;4.78;;;;;;;1.19;74.47;99179.36;1811705;79;21023;-39
2021/12/20 13:49:14;;;;;;;22.80;6.20;;;;;;;1.25;73.58;99188.30;1811769;79;20995;-41
2021/12/20 13:51:48;;;;;;;16.35;4.90;;;;;;;1.20;72.86;99179.75;1812217;79;20974;-40
2021/12/20 13:54:22;;;;;;;16.95;4.40;;;;;;;1.22;73.05;99181.45;1812306;79;20987;-42
2021/12/20 13:57:14;;;;;;;12.03;3.65;;;;;;;1.24;72.08;99187.91;1811985;79;21487;-43
2021/12/20 13:59:56;;;;;;;14.47;4.45;;;;;;;1.28;72.07;99189.55;1811931;79;20987;-39
2021/12/20 14:02:26;;;;;;;11.48;3.72;;;;;;;1.29;71.96;99196.41;1811884;79;20995;-39
2021/12/20 14:04:58;;;;;;;12.65;3.83;;;;;;;1.19;71.55;99202.67;1811149;79;21709;-41
2021/12/20 14:07:37;;;;;;;17.05;4.35;;;;;;;1.27;71.53;99199.48;1811891;79;21374;-43
2021/12/20 14:10:18;;;;;;;27.45;6.53;;;;;;;1.21;71.91;99193.13;1811444;79;20999;-42
2021/12/20 14:13:01;;;;;;;10.38;4.67;;;;;;;1.21;71.49;99197.86;1797517;78;20972;-45
2021/12/20 14:15:33;;;;;;;10.38;3.72;;;;;;;1.28;71.69;99199.91;1795034;78;21039;-42
2021/12/20 14:18:11;;;;;;;13.05;3.70;;;;;;;1.18;71.69;99202.25;1801443;78;21422;-42
2021/12/20 14:20:43;;;;;;;;;;;;;;;1.23;72.06;99209.49;1793866;78;21558;-43
2021/12/20 14:23:19;;;;;;;15.58;4.97;;;;;;;1.14;72.18;99215.24;1801823;78;20116;-41
2021/12/20 14:25:50;;;;;;;8.85;4.08;;;;;;;1.02;72.79;99221.96;1806400;78;20941;-41
2021/12/20 14:28:20;;;;;;;9.58;3.98;;;;;;;1.09;73.80;99244.28;1801520;78;20940;-42
2021/12/20 14:30:53;;;;;;;14.68;6.10;;;;;;;0.90;74.78;99241.59;1804838;78;20966;-44
2021/12/20 14:33:27;;;;;;;15.03;6.60;;;;;;;0.98;74.58;99263.01;1796434;78;21463;-43
2021/12/20 14:36:12;;;;;;;11.68;5.55;;;;;;;0.50;76.21;99279.73;1796834;78;20987;-43
2021/12/20 14:38:48;;;;;;;14.83;6.45;;;;;;;0.35;77.11;99282.95;1806175;78;20949;-41
2021/12/20 14:41:30;;;;;;;12.28;6.72;;;;;;;0.31;76.92;99289.06;1798584;78;21027;-41
2021/12/20 14:44:00;;;;;;;20.37;8.23;;;;;;;0.03;78.73;99291.14;1797485;78;20969;-40
2021/12/20 14:46:32;;;;;;;12.13;6.78;;;;;;;-0.09;78.73;99299.91;1805666;78;21002;-43